Toccoa, Georgia
Current Conditions -  °F | °C
As of 1:15 AM on Saturday 01 Nov 2014 (Local Time) from KTOC Reporting Station
Overcast Overcast  
Wind Chill: 38°   Ceiling: 7500
Heat Index: 43°   Visibility: 10mi
Dew Point: 30°   Wind: 8mph
Humidity: 60%   Direction: 320°NW
Pressure: 29.83"   Gusts: 18mph
Location:  34.58°N, 83.33°W
Report Text: KTOC 010515Z AUTO 32007G16KT 10SM SCT065 BKN075 OVC085 06/M01 A2983 RMK AO2 T00601012
Loading
Personal Weather Stations






























Interactive Weather Map
Tropical Storm Tracking
New forecast layout! Learn more

10-Day Weather Forecast

Advertisements
Track Severe Weather on mobile